L Anse, Michigan
Current Conditions -  °F | °C
As of 2:53 AM on Friday 28 Nov 2014 (Local Time) from KCMX Reporting Station
Scattered Clouds Scattered Clouds  
Wind Chill: -20°   Ceiling: Unl
Heat Index: -15°   Visibility: 10mi
Dew Point: -18°   Wind: 5mph
Humidity: 80%   Direction: 220°SW
Pressure: 30.21"   Gusts: NA
Location:  46.7277°N, 88.2881°W
Report Text: KCMX 280753Z AUTO 22004KT 10SM SCT014 SCT110 M15/M18 A3021 RMK AO2 SNE07 SLP258 P0000 T11501178
Loading
Personal Weather Stations






























Interactive Weather Map New forecast layout! Learn more

10-Day Weather Forecast

Advertisements
Track Severe Weather on mobile